createdAt,value
2022-11-20T00:00:54.478Z,68.51
2022-11-20T00:03:26.367Z,68.58
2022-11-20T00:06:06.031Z,68.30
2022-11-20T00:08:38.286Z,68.63
2022-11-20T00:11:16.614Z,68.49
2022-11-20T00:13:51.260Z,68.69
2022-11-20T00:16:25.448Z,68.76
2022-11-20T00:18:57.367Z,68.86
2022-11-20T00:21:29.595Z,68.95
2022-11-20T00:24:01.439Z,68.93
2022-11-20T00:26:33.427Z,69.11
2022-11-20T00:29:05.509Z,68.93
2022-11-20T00:31:37.411Z,69.20
2022-11-20T00:34:10.702Z,69.06
2022-11-20T00:36:42.565Z,69.10
2022-11-20T00:39:14.446Z,69.38
2022-11-20T00:41:46.255Z,69.16
2022-11-20T00:44:18.151Z,69.49
2022-11-20T00:46:50.034Z,69.68
2022-11-20T00:49:21.931Z,69.58
2022-11-20T00:51:53.971Z,69.63
2022-11-20T00:54:25.876Z,69.67
2022-11-20T00:56:57.732Z,69.61
2022-11-20T00:59:29.584Z,69.57
2022-11-20T01:02:01.422Z,69.75
2022-11-20T01:04:33.302Z,69.83
2022-11-20T01:07:05.163Z,70.37
2022-11-20T01:09:37.035Z,70.43
2022-11-20T01:12:08.936Z,70.27
2022-11-20T01:14:40.914Z,70.38
2022-11-20T01:17:12.752Z,70.62
2022-11-20T01:19:45.038Z,70.76
2022-11-20T01:22:16.954Z,70.45
2022-11-20T01:24:48.764Z,70.92
2022-11-20T01:27:20.683Z,71.19
2022-11-20T01:29:54.757Z,71.01
2022-11-20T01:32:30.159Z,70.87
2022-11-20T01:35:02.048Z,71.21
2022-11-20T01:37:34.105Z,71.39
2022-11-20T01:40:06.591Z,71.39
2022-11-20T01:42:57.235Z,71.48
2022-11-20T01:45:57.397Z,72.28
2022-11-20T01:48:41.371Z,72.10
2022-11-20T01:51:35.005Z,72.35
2022-11-20T01:54:11.672Z,72.55
2022-11-20T01:56:45.506Z,72.48
2022-11-20T01:59:19.677Z,72.55
2022-11-20T02:01:51.764Z,72.46
2022-11-20T02:04:23.955Z,72.42
2022-11-20T02:07:01.540Z,72.80
2022-11-20T02:09:33.559Z,72.45
2022-11-20T02:12:05.731Z,72.83
2022-11-20T02:14:37.497Z,72.69
2022-11-20T02:17:09.476Z,72.72
2022-11-20T02:19:41.348Z,72.88
2022-11-20T02:22:16.523Z,73.34
2022-11-20T02:24:48.979Z,73.49
2022-11-20T02:27:22.091Z,73.08
2022-11-20T02:29:58.978Z,73.16
2022-11-20T02:32:33.315Z,73.51
2022-11-20T02:35:10.092Z,73.68
2022-11-20T02:37:42.336Z,73.72
2022-11-20T02:40:15.493Z,73.54
2022-11-20T02:42:53.036Z,73.82
2022-11-20T02:45:25.699Z,73.59
2022-11-20T02:47:57.517Z,73.57
2022-11-20T02:50:29.376Z,73.55
2022-11-20T02:53:01.192Z,73.73
2022-11-20T02:55:33.182Z,73.47
2022-11-20T02:58:05.057Z,73.32
2022-11-20T03:00:37.153Z,73.28
2022-11-20T03:03:09.042Z,73.56
2022-11-20T03:05:40.922Z,73.51
2022-11-20T03:08:12.723Z,73.45
2022-11-20T03:10:44.560Z,73.35
2022-11-20T03:13:16.432Z,73.34
2022-11-20T03:15:48.316Z,73.42
2022-11-20T03:18:20.213Z,73.34
2022-11-20T03:20:58.379Z,73.45
2022-11-20T03:23:32.234Z,73.36
2022-11-20T03:26:17.565Z,73.28
2022-11-20T03:28:54.568Z,73.48
2022-11-20T03:31:29.360Z,73.93
2022-11-20T03:34:01.822Z,73.47
2022-11-20T03:36:34.186Z,73.69
2022-11-20T03:39:06.452Z,73.71
2022-11-20T03:41:41.170Z,73.92
2022-11-20T03:44:13.266Z,73.92
2022-11-20T03:46:45.148Z,74.09
2022-11-20T03:49:17.039Z,73.99
2022-11-20T03:51:48.998Z,74.01
2022-11-20T03:54:20.872Z,74.30
2022-11-20T03:56:52.760Z,74.34
2022-11-20T03:59:24.739Z,74.26
2022-11-20T04:01:56.941Z,74.46
2022-11-20T04:04:28.834Z,74.36
2022-11-20T04:07:00.778Z,74.35
2022-11-20T04:09:33.032Z,74.61
2022-11-20T04:12:05.211Z,74.45
2022-11-20T04:14:37.796Z,74.61
2022-11-20T04:17:09.606Z,74.24
2022-11-20T04:19:41.542Z,74.24
2022-11-20T04:22:13.447Z,74.23
2022-11-20T04:24:45.328Z,74.18
2022-11-20T04:27:17.247Z,74.47
2022-11-20T04:29:49.376Z,74.68
2022-11-20T04:32:21.280Z,74.50
2022-11-20T04:34:54.054Z,74.57
2022-11-20T04:37:25.969Z,74.53
2022-11-20T04:39:58.015Z,74.53
2022-11-20T04:42:30.811Z,74.93
2022-11-20T04:45:02.902Z,74.66
2022-11-20T04:47:36.395Z,74.84
2022-11-20T04:50:08.719Z,74.51
2022-11-20T04:52:40.666Z,74.25
2022-11-20T04:55:12.552Z,74.45
2022-11-20T04:57:44.574Z,74.62
2022-11-20T05:00:16.968Z,74.54
2022-11-20T05:02:49.105Z,74.55
2022-11-20T05:05:21.155Z,74.58
2022-11-20T05:07:53.581Z,74.61
2022-11-20T05:10:28.926Z,74.59
2022-11-20T05:13:01.387Z,74.52
2022-11-20T05:15:33.422Z,74.41
2022-11-20T05:18:05.604Z,74.24
2022-11-20T05:20:37.538Z,74.26
2022-11-20T05:23:09.335Z,74.34
2022-11-20T05:25:41.139Z,74.49
2022-11-20T05:28:13.002Z,74.49
2022-11-20T05:30:45.631Z,74.28
2022-11-20T05:33:18.577Z,74.57
2022-11-20T05:35:50.742Z,74.69
2022-11-20T05:38:23.085Z,74.58
2022-11-20T05:40:55.513Z,74.45
2022-11-20T05:43:27.441Z,74.60
2022-11-20T05:45:59.667Z,74.78
2022-11-20T05:48:32.243Z,74.51
2022-11-20T05:51:06.197Z,74.79
2022-11-20T05:53:39.710Z,74.51
2022-11-20T05:56:16.704Z,74.71
2022-11-20T05:58:49.595Z,75.26
2022-11-20T06:01:23.961Z,75.38
2022-11-20T06:03:56.515Z,75.71
2022-11-20T06:06:28.698Z,75.89
2022-11-20T06:09:01.497Z,76.24
2022-11-20T06:11:33.651Z,76.67
2022-11-20T06:14:05.624Z,76.62
2022-11-20T06:16:37.905Z,77.07
2022-11-20T06:19:09.765Z,77.05
2022-11-20T06:21:41.865Z,77.10
2022-11-20T06:24:14.114Z,77.21
2022-11-20T06:26:46.025Z,77.48
2022-11-20T06:29:18.376Z,77.65
2022-11-20T06:31:50.396Z,77.22
2022-11-20T06:34:22.187Z,77.01
2022-11-20T06:36:54.252Z,77.14
2022-11-20T06:39:26.142Z,77.01
2022-11-20T06:41:59.203Z,76.93
2022-11-20T06:44:31.349Z,76.52
2022-11-20T06:47:03.229Z,76.59
2022-11-20T06:49:37.945Z,76.79
2022-11-20T06:52:09.740Z,76.56
2022-11-20T06:54:41.704Z,76.42
2022-11-20T06:57:13.551Z,76.63
2022-11-20T06:59:45.627Z,76.56
2022-11-20T07:02:19.261Z,76.24
2022-11-20T07:04:51.191Z,76.21
2022-11-20T07:07:23.105Z,76.27
2022-11-20T07:09:55.014Z,75.98
2022-11-20T07:12:26.991Z,76.16
2022-11-20T07:14:58.868Z,75.88
2022-11-20T07:17:30.945Z,75.67
2022-11-20T07:20:02.925Z,75.75
2022-11-20T07:22:35.051Z,75.86
2022-11-20T07:25:09.026Z,76.20
2022-11-20T07:27:41.888Z,76.19
2022-11-20T07:30:15.007Z,76.04
2022-11-20T07:32:53.395Z,76.03
2022-11-20T07:35:25.884Z,76.21
2022-11-20T07:37:57.762Z,76.15
2022-11-20T07:40:30.297Z,75.98
2022-11-20T07:43:02.173Z,76.15
2022-11-20T07:45:35.448Z,76.06
2022-11-20T07:48:07.296Z,76.03
2022-11-20T07:50:39.315Z,75.83
2022-11-20T07:53:11.527Z,75.64
2022-11-20T07:55:43.387Z,75.39
2022-11-20T07:58:15.319Z,75.38
2022-11-20T08:00:48.487Z,75.45
2022-11-20T08:03:24.620Z,74.98
2022-11-20T08:06:02.201Z,74.92
2022-11-20T08:08:36.086Z,74.89
2022-11-20T08:11:28.528Z,74.60
2022-11-20T08:14:13.329Z,74.49
2022-11-20T08:16:49.505Z,74.57
2022-11-20T08:19:21.859Z,74.46
2022-11-20T08:21:54.274Z,74.38
2022-11-20T08:24:27.389Z,74.57
2022-11-20T08:27:00.179Z,74.27
2022-11-20T08:29:32.160Z,74.09
2022-11-20T08:32:04.172Z,74.14
2022-11-20T08:34:36.129Z,73.73
2022-11-20T08:37:08.002Z,73.75
2022-11-20T08:39:40.029Z,73.98
2022-11-20T08:42:12.174Z,73.65
2022-11-20T08:44:44.299Z,73.72
2022-11-20T08:47:16.398Z,73.66
2022-11-20T08:49:48.303Z,73.21
2022-11-20T08:52:20.227Z,73.20
2022-11-20T08:54:52.229Z,73.17
2022-11-20T08:57:24.563Z,72.60
2022-11-20T09:00:06.114Z,72.64
2022-11-20T09:02:38.554Z,72.68
2022-11-20T09:05:10.500Z,72.68
2022-11-20T09:07:45.356Z,72.66
2022-11-20T09:13:09.117Z,72.65
2022-11-20T09:15:41.174Z,72.75
2022-11-20T09:18:13.871Z,72.83
2022-11-20T09:20:45.788Z,72.53
2022-11-20T09:23:18.844Z,72.68
2022-11-20T09:25:51.044Z,72.65
2022-11-20T09:28:23.140Z,73.05
2022-11-20T09:30:55.292Z,73.19
2022-11-20T09:33:27.564Z,73.57
2022-11-20T09:35:59.541Z,74.23
2022-11-20T09:38:31.523Z,74.42
2022-11-20T09:41:07.265Z,74.33
2022-11-20T09:43:58.540Z,74.41
2022-11-20T09:46:42.040Z,74.57
2022-11-20T09:49:32.308Z,74.42
2022-11-20T09:52:13.630Z,74.60
2022-11-20T09:54:45.472Z,75.02
2022-11-20T09:57:23.009Z,74.76
2022-11-20T09:59:58.286Z,74.63
2022-11-20T10:02:35.642Z,74.83
2022-11-20T10:05:10.419Z,74.79
2022-11-20T10:08:21.261Z,74.49
2022-11-20T10:11:16.087Z,74.70
2022-11-20T10:14:22.105Z,74.13
2022-11-20T10:17:18.858Z,74.17
2022-11-20T10:20:13.646Z,73.85
2022-11-20T10:22:45.611Z,73.89
2022-11-20T10:25:20.615Z,73.75
2022-11-20T10:28:31.355Z,73.09
2022-11-20T10:31:11.405Z,73.06
2022-11-20T10:34:10.485Z,73.10
2022-11-20T10:36:44.501Z,72.80
2022-11-20T10:39:36.675Z,72.30
2022-11-20T10:42:12.727Z,72.75
2022-11-20T10:45:04.452Z,72.73
2022-11-20T10:47:38.298Z,72.43
2022-11-20T10:50:15.385Z,72.32
2022-11-20T10:52:57.683Z,72.25
2022-11-20T10:55:49.849Z,70.66
2022-11-20T10:58:43.831Z,70.96
2022-11-20T11:01:18.280Z,71.51
2022-11-20T11:03:52.703Z,71.48
2022-11-20T11:06:36.888Z,71.32
2022-11-20T11:09:25.475Z,71.16
2022-11-20T11:12:00.705Z,71.31
2022-11-20T11:14:44.029Z,69.97
2022-11-20T11:17:30.300Z,70.27
2022-11-20T11:20:18.471Z,70.34
2022-11-20T11:22:56.658Z,70.69
2022-11-20T11:25:30.130Z,70.91
2022-11-20T11:28:05.345Z,70.78
2022-11-20T11:30:44.726Z,70.47
2022-11-20T11:33:21.784Z,70.34
2022-11-20T11:36:05.545Z,69.80
2022-11-20T11:38:40.207Z,70.12
2022-11-20T11:41:22.280Z,69.88
2022-11-20T11:44:15.067Z,70.04
2022-11-20T11:46:54.517Z,69.71
2022-11-20T11:49:26.647Z,69.88
2022-11-20T11:52:10.359Z,69.62
2022-11-20T11:54:56.448Z,68.84
2022-11-20T11:57:36.055Z,69.40
2022-11-20T12:00:15.597Z,69.09
2022-11-20T12:02:49.268Z,69.69
2022-11-20T12:05:46.265Z,69.35
2022-11-20T12:08:33.012Z,69.63
2022-11-20T12:11:17.745Z,69.15
2022-11-20T12:13:55.419Z,68.72
2022-11-20T12:16:27.265Z,69.06
2022-11-20T12:18:59.194Z,69.01
2022-11-20T12:21:42.887Z,68.09
2022-11-20T12:24:23.610Z,68.02
2022-11-20T12:27:23.427Z,68.17
2022-11-20T12:30:09.841Z,67.33
2022-11-20T12:33:18.915Z,67.08
2022-11-20T12:35:53.961Z,67.72
2022-11-20T12:38:44.162Z,67.45
2022-11-20T12:41:38.635Z,67.51
2022-11-20T12:45:07.565Z,66.97
2022-11-20T12:47:39.463Z,67.65
2022-11-20T12:50:11.342Z,67.80
2022-11-20T12:52:52.010Z,67.24
2022-11-20T12:55:37.807Z,66.75
2022-11-20T12:58:24.737Z,66.56
2022-11-20T13:01:10.668Z,66.54
2022-11-20T13:03:49.454Z,66.78
2022-11-20T13:06:21.632Z,67.02
2022-11-20T13:08:56.904Z,66.89
2022-11-20T13:11:35.567Z,66.57
2022-11-20T13:14:15.232Z,66.63
2022-11-20T13:16:55.938Z,66.25
2022-11-20T13:19:29.511Z,66.82
2022-11-20T13:22:01.666Z,66.53
2022-11-20T13:24:33.746Z,66.53
2022-11-20T13:27:14.591Z,65.51
2022-11-20T13:29:47.717Z,65.96
2022-11-20T13:32:21.703Z,65.94
2022-11-20T13:35:02.515Z,65.69
2022-11-20T13:37:38.603Z,65.91
2022-11-20T13:40:11.273Z,65.90
2022-11-20T13:42:43.508Z,65.59
2022-11-20T13:45:28.594Z,64.85
2022-11-20T13:48:05.446Z,65.18
2022-11-20T13:50:37.232Z,65.54
2022-11-20T13:53:28.743Z,64.46
2022-11-20T13:56:25.682Z,65.25
2022-11-20T13:59:08.648Z,64.43
2022-11-20T14:01:46.386Z,64.81
2022-11-20T14:04:33.124Z,64.45
2022-11-20T14:07:06.802Z,65.15
2022-11-20T14:09:38.686Z,64.92
2022-11-20T14:12:17.078Z,64.87
2022-11-20T14:14:53.676Z,65.01
2022-11-20T14:17:34.689Z,65.11
2022-11-20T14:20:13.989Z,65.21
2022-11-20T14:22:50.745Z,65.14
2022-11-20T14:25:27.817Z,65.41
2022-11-20T14:28:01.585Z,65.39
2022-11-20T14:30:45.914Z,65.59
2022-11-20T14:33:18.353Z,65.97
2022-11-20T14:35:53.066Z,65.79
2022-11-20T14:38:28.611Z,65.74
2022-11-20T14:41:08.122Z,65.82
2022-11-20T14:43:40.353Z,65.85
2022-11-20T14:46:12.934Z,65.83
2022-11-20T14:48:46.733Z,65.85
2022-11-20T14:51:46.049Z,65.46
2022-11-20T14:54:20.150Z,65.85
2022-11-20T14:57:00.390Z,65.50
2022-11-20T14:59:35.347Z,65.83
2022-11-20T15:02:10.626Z,65.63
2022-11-20T15:04:47.644Z,65.69
2022-11-20T15:07:31.243Z,65.51
2022-11-20T15:10:04.380Z,65.97
2022-11-20T15:12:39.581Z,65.72
2022-11-20T15:15:13.584Z,65.74
2022-11-20T15:17:45.449Z,66.10
2022-11-20T15:20:18.259Z,66.12
2022-11-20T15:22:50.123Z,65.93
2022-11-20T15:25:22.109Z,66.27
2022-11-20T15:27:56.580Z,66.08
2022-11-20T15:30:28.597Z,66.05
2022-11-20T15:33:00.468Z,66.19
2022-11-20T15:35:32.301Z,66.32
2022-11-20T15:38:04.239Z,66.56
2022-11-20T15:40:36.209Z,66.70
2022-11-20T15:43:13.349Z,67.04
2022-11-20T15:45:56.756Z,67.09
2022-11-20T15:48:31.904Z,67.13
2022-11-20T15:51:12.461Z,67.27
2022-11-20T15:53:44.445Z,67.50
2022-11-20T15:56:16.576Z,67.71
2022-11-20T15:58:48.848Z,67.45
2022-11-20T16:01:23.081Z,67.57
2022-11-20T16:03:55.055Z,68.01
2022-11-20T16:06:26.871Z,68.04
2022-11-20T16:08:58.828Z,68.16
2022-11-20T16:11:30.636Z,67.83
2022-11-20T16:14:21.171Z,68.23
2022-11-20T16:16:53.366Z,67.91
2022-11-20T16:19:25.265Z,68.11
2022-11-20T16:22:02.666Z,67.83
2022-11-20T16:24:35.186Z,67.67
2022-11-20T16:27:06.989Z,67.67
2022-11-20T16:29:38.891Z,67.61
2022-11-20T16:32:11.001Z,67.16
2022-11-20T16:34:42.987Z,67.28
2022-11-20T16:37:14.779Z,67.42
2022-11-20T16:39:46.678Z,67.42
2022-11-20T16:42:18.711Z,67.50
2022-11-20T16:44:50.660Z,67.28
2022-11-20T16:47:22.579Z,67.46
2022-11-20T16:49:54.575Z,67.17
2022-11-20T16:52:26.405Z,67.28
2022-11-20T16:54:58.657Z,67.08
2022-11-20T16:57:33.297Z,66.84
2022-11-20T17:00:05.634Z,66.82
2022-11-20T17:02:38.168Z,66.68
2022-11-20T17:05:10.001Z,66.73
2022-11-20T17:07:42.012Z,66.45
2022-11-20T17:10:14.012Z,66.68
2022-11-20T17:12:45.871Z,66.39
2022-11-20T17:15:17.978Z,66.45
2022-11-20T17:17:49.879Z,66.65
2022-11-20T17:20:21.888Z,66.47
2022-11-20T17:22:54.037Z,66.41
2022-11-20T17:25:25.840Z,66.70
2022-11-20T17:27:57.751Z,66.39
2022-11-20T17:30:30.572Z,66.43
2022-11-20T17:33:02.520Z,66.33
2022-11-20T17:35:36.689Z,66.23
2022-11-20T17:38:08.580Z,66.01
2022-11-20T17:40:40.641Z,66.06
2022-11-20T17:43:12.700Z,65.68
2022-11-20T17:45:45.084Z,65.71
2022-11-20T17:48:16.996Z,65.57
2022-11-20T17:50:49.017Z,65.84
2022-11-20T17:53:21.268Z,65.65
2022-11-20T17:56:17.828Z,65.75
2022-11-20T17:58:50.084Z,65.78
2022-11-20T18:01:22.532Z,66.02
2022-11-20T18:03:56.324Z,65.71
2022-11-20T18:06:29.258Z,65.98
2022-11-20T18:09:02.889Z,66.06
2022-11-20T18:11:39.148Z,65.75
2022-11-20T18:14:28.987Z,65.82
2022-11-20T18:17:04.128Z,66.25
2022-11-20T18:19:55.288Z,66.29
2022-11-20T18:22:32.741Z,66.41
2022-11-20T18:25:04.931Z,66.41
2022-11-20T18:27:36.822Z,66.68
2022-11-20T18:30:09.356Z,66.97
2022-11-20T18:32:41.412Z,67.00
2022-11-20T18:35:13.449Z,67.75
2022-11-20T18:37:45.430Z,68.54
2022-11-20T18:40:17.396Z,69.17
2022-11-20T18:43:21.655Z,70.05
2022-11-20T18:46:02.780Z,71.13
2022-11-20T18:48:34.576Z,71.20
2022-11-20T18:51:07.700Z,71.64
2022-11-20T18:53:44.359Z,72.13
2022-11-20T18:56:18.959Z,72.80
2022-11-20T18:58:50.771Z,73.10
2022-11-20T19:01:22.735Z,73.50
2022-11-20T19:03:54.591Z,73.40
2022-11-20T19:06:26.764Z,73.98
2022-11-20T19:08:58.603Z,73.89
2022-11-20T19:11:30.642Z,74.01
2022-11-20T19:14:02.917Z,74.35
2022-11-20T19:16:35.069Z,74.37
2022-11-20T19:19:07.336Z,74.35
2022-11-20T19:21:39.212Z,74.62
2022-11-20T19:24:11.101Z,74.54
2022-11-20T19:26:43.516Z,74.76
2022-11-20T19:29:16.291Z,74.48
2022-11-20T19:31:48.420Z,74.57
2022-11-20T19:34:20.385Z,74.26
2022-11-20T19:36:52.414Z,74.17
2022-11-20T19:39:24.462Z,74.19
2022-11-20T19:41:56.589Z,74.01
2022-11-20T19:44:28.513Z,74.23
2022-11-20T19:47:02.337Z,74.15
2022-11-20T19:49:34.264Z,74.45
2022-11-20T19:52:06.146Z,74.46
2022-11-20T19:54:38.008Z,74.12
2022-11-20T19:57:09.864Z,73.85
2022-11-20T19:59:41.858Z,73.89
2022-11-20T20:02:13.768Z,73.74
2022-11-20T20:04:46.973Z,73.79
2022-11-20T20:07:18.983Z,73.79
2022-11-20T20:09:50.913Z,73.67
2022-11-20T20:12:22.797Z,73.53
2022-11-20T20:14:54.628Z,73.58
2022-11-20T20:17:26.706Z,73.76
2022-11-20T20:19:58.594Z,73.59
2022-11-20T20:22:30.466Z,73.76
2022-11-20T20:25:02.315Z,73.71
2022-11-20T20:27:34.277Z,73.70
2022-11-20T20:30:07.925Z,73.92
2022-11-20T20:32:40.211Z,73.61
2022-11-20T20:35:12.070Z,73.98
2022-11-20T20:37:44.626Z,73.59
2022-11-20T20:40:16.607Z,73.71
2022-11-20T20:42:48.465Z,73.62
2022-11-20T20:45:20.335Z,73.75
2022-11-20T20:47:52.255Z,73.28
2022-11-20T20:50:24.116Z,73.22
2022-11-20T20:52:56.041Z,73.53
2022-11-20T20:55:27.972Z,73.49
2022-11-20T20:58:00.100Z,73.42
2022-11-20T21:00:31.947Z,73.75
2022-11-20T21:03:03.767Z,73.73
2022-11-20T21:05:35.578Z,73.63
2022-11-20T21:08:22.807Z,73.60
2022-11-20T21:11:00.009Z,73.81
2022-11-20T21:13:33.090Z,73.90
2022-11-20T21:16:05.351Z,74.22
2022-11-20T21:18:37.485Z,74.53
2022-11-20T21:21:31.107Z,74.55
2022-11-20T21:24:03.660Z,74.36
2022-11-20T21:26:35.621Z,74.37
2022-11-20T21:29:07.449Z,74.50
2022-11-20T21:31:39.321Z,74.57
2022-11-20T21:34:13.127Z,74.51
2022-11-20T21:36:45.456Z,74.69
2022-11-20T21:39:17.870Z,74.33
2022-11-20T21:41:49.750Z,74.42
2022-11-20T21:44:31.012Z,74.27
2022-11-20T21:47:03.663Z,74.40
2022-11-20T21:49:35.555Z,74.37
2022-11-20T21:52:07.523Z,74.59
2022-11-20T21:54:39.324Z,74.54
2022-11-20T21:57:11.148Z,74.11
2022-11-20T21:59:42.940Z,74.15
2022-11-20T22:02:14.777Z,74.16
2022-11-20T22:04:46.720Z,73.94
2022-11-20T22:07:18.698Z,74.18
2022-11-20T22:09:50.671Z,74.09
2022-11-20T22:12:22.640Z,73.98
2022-11-20T22:14:54.461Z,74.17
2022-11-20T22:17:44.865Z,73.98
2022-11-20T22:20:16.740Z,74.21
2022-11-20T22:22:48.651Z,74.16
2022-11-20T22:25:20.666Z,74.29
2022-11-20T22:27:52.500Z,74.29
2022-11-20T22:30:25.352Z,74.42
2022-11-20T22:32:57.219Z,74.10
2022-11-20T22:35:30.021Z,74.44
2022-11-20T22:38:01.926Z,74.14
2022-11-20T22:40:33.798Z,74.05
2022-11-20T22:43:05.643Z,74.43
2022-11-20T22:45:37.473Z,74.32
2022-11-20T22:48:09.417Z,74.29
2022-11-20T22:50:41.364Z,74.59
2022-11-20T22:53:13.323Z,74.75
2022-11-20T22:55:49.354Z,74.96
2022-11-20T22:58:21.531Z,74.73
2022-11-20T23:00:53.451Z,74.59
2022-11-20T23:03:25.426Z,74.64
2022-11-20T23:06:00.341Z,75.12
2022-11-20T23:08:32.333Z,74.86
2022-11-20T23:11:09.807Z,75.14
2022-11-20T23:13:42.829Z,75.05
2022-11-20T23:16:17.071Z,75.21
2022-11-20T23:18:54.046Z,75.38
2022-11-20T23:21:26.361Z,75.52
2022-11-20T23:23:59.272Z,75.22
2022-11-20T23:26:33.755Z,75.15
2022-11-20T23:29:06.116Z,75.26
2022-11-20T23:31:38.056Z,75.27
2022-11-20T23:34:10.520Z,75.27
2022-11-20T23:36:42.412Z,75.30
2022-11-20T23:39:16.375Z,75.41
2022-11-20T23:41:48.252Z,75.24
2022-11-20T23:44:20.234Z,75.40
2022-11-20T23:46:52.245Z,75.35
2022-11-20T23:49:24.048Z,75.38
2022-11-20T23:51:55.904Z,75.34
2022-11-20T23:54:28.235Z,75.42
2022-11-20T23:57:00.295Z,75.43
2022-11-20T23:59:32.183Z,75.45
